Time;durP1;ratioP1;P1;durP2;ratioP2;P2;SDS_P1;SDS_P2;PMS_P1;PMS_P2;Temp;Humidity;BMP_temperature;BMP_pressure;BME280_temperature;BME280_humidity;BME280_pressure;Samples;Min_cycle;Max_cycle;Signal;HPM_P1;HPM_P2
2022/05/17 00:01:03;;;;;;;16.20;8.00;;;15.60;99.90;;;;;;5021470;28;20045;-75
2022/05/17 00:03:29;;;;;;;18.50;7.47;;;15.60;99.90;;;;;;5007168;28;20085;-75
2022/05/17 00:05:55;;;;;;;16.05;7.70;;;15.50;99.90;;;;;;5006751;28;20053;-75
2022/05/17 00:08:22;;;;;;;17.20;7.43;;;15.50;99.90;;;;;;5023425;28;20789;-75
2022/05/17 00:10:48;;;;;;;14.70;6.90;;;15.40;99.90;;;;;;5006925;28;20061;-75
2022/05/17 00:13:14;;;;;;;17.55;7.97;;;15.30;99.90;;;;;;5006375;28;20077;-75
2022/05/17 00:15:49;;;;;;;15.75;7.45;;;15.30;99.90;;;;;;5023060;28;20037;-75
2022/05/17 00:18:16;;;;;;;18.23;7.47;;;15.20;99.90;;;;;;5006410;28;20495;-74
2022/05/17 00:20:43;;;;;;;14.68;7.22;;;15.10;99.90;;;;;;5023536;28;20045;-75
2022/05/17 00:23:12;;;;;;;15.20;7.50;;;15.10;99.90;;;;;;5006872;28;20145;-75
2022/05/17 00:25:38;;;;;;;14.18;7.30;;;15.10;99.90;;;;;;5022928;28;20120;-74
2022/05/17 00:28:04;;;;;;;14.77;6.93;;;15.00;99.90;;;;;;5006275;28;20136;-75
2022/05/17 00:30:31;;;;;;;16.55;7.95;;;15.00;99.90;;;;;;5023477;28;20110;-75
2022/05/17 00:32:57;;;;;;;18.20;7.35;;;15.00;99.90;;;;;;5019055;28;20507;-75
2022/05/17 00:35:23;;;;;;;13.88;6.95;;;15.00;99.90;;;;;;5019783;28;20099;-75
2022/05/17 00:37:49;;;;;;;17.25;7.80;;;14.90;99.90;;;;;;5006394;28;20436;-76
2022/05/17 00:40:15;;;;;;;14.93;7.40;;;14.90;99.90;;;;;;5022491;28;20511;-74
2022/05/17 00:42:41;;;;;;;15.20;8.05;;;14.90;99.90;;;;;;5006857;28;20052;-75
2022/05/17 00:45:09;;;;;;;18.20;7.65;;;14.90;99.90;;;;;;5022409;28;20045;-75
2022/05/17 00:47:37;;;;;;;17.98;7.13;;;14.80;99.90;;;;;;5022701;28;20617;-74
2022/05/17 00:50:08;;;;;;;16.05;7.35;;;14.80;99.90;;;;;;5022609;28;21233;-75
2022/05/17 00:52:34;;;;;;;14.98;7.68;;;14.70;99.90;;;;;;5006733;28;20150;-75
2022/05/17 00:55:11;;;;;;;17.75;7.20;;;14.70;99.90;;;;;;5022066;28;20081;-74
2022/05/17 00:57:42;;;;;;;16.10;7.47;;;14.70;99.90;;;;;;5019141;28;20518;-75
2022/05/17 01:00:14;;;;;;;16.73;8.00;;;14.70;99.90;;;;;;5019633;28;20132;-75
2022/05/17 01:02:48;;;;;;;17.05;7.78;;;14.60;99.90;;;;;;5019856;28;20386;-75
2022/05/17 01:05:16;;;;;;;15.82;7.40;;;14.60;99.90;;;;;;5022408;28;20202;-75
2022/05/17 01:07:46;;;;;;;19.33;8.57;;;14.60;99.90;;;;;;5023826;28;20037;-75
2022/05/17 01:10:12;;;;;;;16.17;7.50;;;14.60;99.90;;;;;;5007658;28;20049;-75
2022/05/17 01:12:40;;;;;;;16.67;7.88;;;14.60;99.90;;;;;;5007854;28;20056;-75
2022/05/17 01:15:08;;;;;;;21.15;9.70;;;14.50;99.90;;;;;;5023900;28;20045;-75
2022/05/17 01:17:37;;;;;;;20.08;8.38;;;14.50;99.90;;;;;;5023833;28;20052;-75
2022/05/17 01:20:07;;;;;;;16.77;8.55;;;14.50;99.90;;;;;;5024263;28;20324;-75
2022/05/17 01:22:33;;;;;;;17.80;8.13;;;14.40;99.90;;;;;;5025139;28;20048;-75
2022/05/17 01:24:59;;;;;;;19.13;9.23;;;14.40;99.90;;;;;;5022437;28;20119;-75
2022/05/17 01:27:40;;;;;;;20.10;9.60;;;14.40;99.90;;;;;;4991955;28;20464;-75
2022/05/17 01:30:06;;;;;;;14.85;7.80;;;14.40;99.90;;;;;;5022596;28;20042;-74
2022/05/17 01:32:33;;;;;;;20.35;9.20;;;14.40;99.90;;;;;;5007123;28;20388;-75
2022/05/17 01:34:59;;;;;;;15.25;9.02;;;14.30;99.90;;;;;;5024051;28;20441;-74
2022/05/17 01:37:25;;;;;;;14.07;8.13;;;14.30;99.90;;;;;;4991156;28;20575;-75
2022/05/17 01:39:51;;;;;;;14.82;9.05;;;14.20;99.90;;;;;;5024403;28;20188;-74
2022/05/17 01:42:17;;;;;;;18.10;9.65;;;14.20;99.90;;;;;;5007144;28;20045;-74
2022/05/17 01:44:44;;;;;;;18.17;9.57;;;14.20;99.90;;;;;;5007826;28;20041;-74
2022/05/17 01:47:14;;;;;;;20.98;12.20;;;14.20;99.90;;;;;;5024147;28;20045;-75
2022/05/17 01:49:40;;;;;;;18.90;11.18;;;14.20;99.90;;;;;;5008113;28;20060;-75
2022/05/17 01:52:06;;;;;;;18.88;10.07;;;14.20;99.90;;;;;;5024453;28;20041;-75
2022/05/17 01:54:32;;;;;;;19.98;11.15;;;14.20;99.90;;;;;;5024236;28;20160;-74
2022/05/17 01:56:57;;;;;;;19.13;10.65;;;14.20;99.90;;;;;;5005800;28;20159;-75
2022/05/17 01:59:23;;;;;;;18.27;11.05;;;14.20;99.90;;;;;;5007752;28;20128;-75
2022/05/17 02:01:49;;;;;;;18.65;11.63;;;14.20;99.90;;;;;;4984115;28;20128;-75
2022/05/17 02:04:15;;;;;;;20.13;12.80;;;14.20;99.90;;;;;;5021898;28;20722;-75
2022/05/17 02:06:42;;;;;;;19.17;11.68;;;14.20;99.90;;;;;;5006172;28;20492;-74
2022/05/17 02:09:08;;;;;;;18.98;11.80;;;14.20;99.90;;;;;;5023540;28;20054;-75
2022/05/17 02:11:33;;;;;;;19.15;12.00;;;14.10;99.90;;;;;;5005910;28;20119;-73
2022/05/17 02:13:59;;;;;;;17.27;11.60;;;14.10;99.90;;;;;;4989764;28;20050;-76
2022/05/17 02:16:25;;;;;;;21.13;12.55;;;14.10;99.90;;;;;;5008100;28;20045;-75
2022/05/17 02:18:51;;;;;;;24.40;13.20;;;14.10;99.90;;;;;;4993033;28;20038;-75
2022/05/17 02:21:17;;;;;;;20.20;11.90;;;14.10;99.90;;;;;;4992445;28;20073;-76
2022/05/17 02:23:42;;;;;;;19.65;13.30;;;14.10;99.90;;;;;;5002131;28;20046;-76
2022/05/17 02:26:11;;;;;;;19.30;10.93;;;14.10;99.90;;;;;;5029182;28;20510;-75
2022/05/17 02:28:38;;;;;;;19.90;10.88;;;14.10;99.90;;;;;;5013030;28;20049;-75
2022/05/17 02:31:03;;;;;;;15.68;11.38;;;14.10;99.90;;;;;;5011178;28;20367;-75
2022/05/17 02:33:29;;;;;;;20.88;11.75;;;14.10;99.90;;;;;;5041493;28;20894;-75
2022/05/17 02:35:55;;;;;;;20.88;12.90;;;14.00;99.90;;;;;;4996757;28;20136;-74
2022/05/17 02:38:20;;;;;;;17.08;11.73;;;14.00;99.90;;;;;;5026090;28;20050;-74
2022/05/17 02:40:46;;;;;;;20.98;12.30;;;14.00;99.90;;;;;;5013436;28;20534;-75
2022/05/17 02:43:14;;;;;;;19.48;10.40;;;14.00;99.90;;;;;;5012878;28;20466;-73
2022/05/17 02:45:40;;;;;;;17.33;11.25;;;14.00;99.90;;;;;;5013205;28;20447;-74
2022/05/17 02:48:06;;;;;;;22.83;12.98;;;14.00;99.90;;;;;;4996887;28;20053;-74
2022/05/17 02:50:32;;;;;;;20.33;13.52;;;13.90;99.90;;;;;;5018727;28;20045;-74
2022/05/17 02:52:58;;;;;;;22.35;11.98;;;13.90;99.90;;;;;;4996971;28;20049;-74
2022/05/17 02:55:24;;;;;;;21.98;12.45;;;13.90;99.90;;;;;;5029712;28;20048;-75
2022/05/17 02:57:50;;;;;;;21.33;11.80;;;13.90;99.90;;;;;;5015416;28;20057;-74
2022/05/17 03:00:16;;;;;;;20.23;13.23;;;13.90;99.90;;;;;;5029493;28;20053;-74
2022/05/17 03:02:43;;;;;;;19.40;12.00;;;13.80;99.90;;;;;;5015498;28;20046;-74
2022/05/17 03:05:16;;;;;;;16.23;11.35;;;13.80;99.90;;;;;;4982096;28;20360;-73
2022/05/17 03:07:42;;;;;;;19.40;12.40;;;13.80;99.90;;;;;;5013679;28;20049;-73
2022/05/17 03:10:09;;;;;;;20.08;11.68;;;13.80;99.90;;;;;;5012364;28;20088;-74
2022/05/17 03:12:35;;;;;;;23.05;13.68;;;13.70;99.90;;;;;;5029229;28;20092;-74
2022/05/17 03:15:00;;;;;;;24.27;13.70;;;13.80;99.90;;;;;;5028126;28;20084;-74
2022/05/17 03:17:26;;;;;;;23.48;13.35;;;13.70;99.90;;;;;;5010740;28;20409;-74
2022/05/17 03:19:56;;;;;;;17.95;11.88;;;13.70;99.90;;;;;;5009234;28;20049;-74
2022/05/17 03:22:22;;;;;;;21.38;13.32;;;13.70;99.90;;;;;;4994232;28;20095;-74
2022/05/17 03:24:48;;;;;;;22.10;13.02;;;13.70;99.90;;;;;;5027719;28;20136;-74
2022/05/17 03:27:17;;;;;;;25.17;15.02;;;13.70;99.90;;;;;;5024194;28;20128;-74
2022/05/17 03:29:46;;;;;;;21.60;12.40;;;13.60;99.90;;;;;;5027791;28;20029;-74
2022/05/17 03:32:12;;;;;;;20.15;13.23;;;13.60;99.90;;;;;;5024177;28;20041;-74
2022/05/17 03:34:38;;;;;;;22.95;13.80;;;13.60;99.90;;;;;;5026984;28;20408;-74
2022/05/17 03:37:04;;;;;;;26.30;13.45;;;13.60;99.90;;;;;;5009960;28;20227;-74
2022/05/17 03:39:30;;;;;;;25.08;14.23;;;13.60;99.90;;;;;;5027030;28;20104;-74
2022/05/17 03:41:56;;;;;;;22.92;13.98;;;13.60;99.90;;;;;;5011017;28;20128;-74
2022/05/17 03:44:21;;;;;;;18.63;13.25;;;13.50;99.90;;;;;;5026584;28;20563;-74
2022/05/17 03:46:47;;;;;;;21.13;14.70;;;13.50;99.90;;;;;;5011236;28;20123;-74
2022/05/17 03:49:16;;;;;;;20.83;14.15;;;13.50;99.90;;;;;;5026909;28;20108;-74
2022/05/17 03:51:41;;;;;;;25.05;15.73;;;13.50;99.90;;;;;;5027165;28;20038;-74
2022/05/17 03:54:07;;;;;;;25.58;15.43;;;13.50;99.90;;;;;;5026959;28;20053;-74
2022/05/17 03:56:33;;;;;;;22.67;15.55;;;13.50;99.90;;;;;;5009242;28;20524;-73
2022/05/17 03:58:59;;;;;;;23.02;14.45;;;13.50;99.90;;;;;;5026808;28;20676;-73
2022/05/17 04:01:25;;;;;;;25.33;15.25;;;13.50;99.90;;;;;;5002625;28;20381;-73
2022/05/17 04:03:51;;;;;;;24.92;15.40;;;13.50;99.90;;;;;;5008892;28;20184;-74
2022/05/17 04:06:19;;;;;;;25.23;13.93;;;13.50;99.90;;;;;;5016100;28;20059;-74
2022/05/17 04:08:45;;;;;;;21.08;15.40;;;13.50;99.90;;;;;;5011845;28;20442;-75
2022/05/17 04:11:12;;;;;;;23.45;13.30;;;13.50;99.90;;;;;;5012089;28;20068;-74
2022/05/17 04:13:38;;;;;;;20.83;15.18;;;13.60;99.90;;;;;;5028411;28;20547;-74
2022/05/17 04:16:04;;;;;;;21.17;13.68;;;13.60;99.90;;;;;;5011984;28;20103;-75
2022/05/17 04:18:30;;;;;;;20.95;15.52;;;13.70;99.90;;;;;;5028156;28;20088;-75
2022/05/17 04:21:00;;;;;;;22.40;13.95;;;13.70;99.90;;;;;;5012175;28;20089;-75
2022/05/17 04:23:27;;;;;;;21.55;13.85;;;13.70;99.90;;;;;;5011457;28;20091;-75
2022/05/17 04:25:53;;;;;;;24.40;15.35;;;13.70;99.90;;;;;;5028080;28;20053;-75
2022/05/17 04:28:18;;;;;;;23.55;15.43;;;13.70;99.90;;;;;;5027123;28;20041;-75
2022/05/17 04:30:44;;;;;;;23.48;14.10;;;13.70;99.90;;;;;;5011428;28;20506;-74
2022/05/17 04:33:11;;;;;;;27.73;15.98;;;13.80;99.90;;;;;;5010032;28;20063;-74
2022/05/17 04:35:36;;;;;;;20.95;14.38;;;13.80;99.90;;;;;;5010872;28;20496;-74
2022/05/17 04:38:02;;;;;;;20.80;14.32;;;13.80;99.90;;;;;;5010945;28;20063;-75
2022/05/17 04:40:28;;;;;;;20.85;13.98;;;13.90;99.90;;;;;;5027147;28;20049;-74
2022/05/17 04:42:57;;;;;;;21.88;14.50;;;13.90;99.90;;;;;;5027804;28;20049;-75
2022/05/17 04:45:23;;;;;;;22.83;14.82;;;14.00;99.90;;;;;;4995152;28;20073;-74
2022/05/17 04:47:49;;;;;;;24.38;15.43;;;14.00;99.90;;;;;;4995193;28;20081;-74
2022/05/17 04:50:17;;;;;;;23.63;14.75;;;14.00;99.90;;;;;;4994069;28;20686;-74
2022/05/17 04:52:47;;;;;;;18.58;12.77;;;14.10;99.90;;;;;;5027456;28;20344;-74
2022/05/17 04:55:15;;;;;;;24.77;14.60;;;14.10;99.90;;;;;;5011649;28;20539;-74
2022/05/17 04:57:41;;;;;;;21.17;14.75;;;14.10;99.90;;;;;;5009238;28;20092;-74
2022/05/17 05:00:15;;;;;;;20.85;13.57;;;14.20;99.90;;;;;;5006822;28;20137;-75
2022/05/17 05:02:40;;;;;;;20.63;12.52;;;14.20;99.90;;;;;;5009325;28;20408;-74
2022/05/17 05:05:07;;;;;;;18.65;12.75;;;14.20;99.90;;;;;;5007507;28;20059;-75
2022/05/17 05:07:33;;;;;;;18.35;13.07;;;14.20;99.90;;;;;;5022763;28;20059;-74
2022/05/17 05:09:58;;;;;;;19.20;12.52;;;14.20;99.90;;;;;;5003734;28;20061;-74
2022/05/17 05:12:25;;;;;;;18.88;13.13;;;14.20;99.90;;;;;;4991838;28;20045;-75
2022/05/17 05:14:51;;;;;;;17.88;12.57;;;14.30;99.90;;;;;;5023239;28;20103;-75
2022/05/17 05:17:16;;;;;;;20.65;12.70;;;14.30;99.90;;;;;;4992389;28;20041;-75
2022/05/17 05:19:42;;;;;;;19.45;14.18;;;14.40;99.90;;;;;;5024703;28;20046;-75
2022/05/17 05:22:08;;;;;;;17.35;11.57;;;14.40;99.90;;;;;;5005869;28;20052;-74
2022/05/17 05:24:34;;;;;;;21.58;12.57;;;14.50;99.90;;;;;;5007195;28;20045;-74
2022/05/17 05:27:00;;;;;;;19.67;13.18;;;14.50;99.90;;;;;;5017377;28;20088;-74
2022/05/17 05:29:26;;;;;;;19.17;12.88;;;14.60;99.90;;;;;;5040916;28;20041;-74
2022/05/17 05:31:52;;;;;;;18.42;11.40;;;14.70;99.90;;;;;;5007797;28;20572;-71
2022/05/17 05:34:18;;;;;;;19.90;12.82;;;14.70;99.90;;;;;;5041603;28;20049;-73
2022/05/17 05:36:46;;;;;;;23.20;12.57;;;14.80;99.90;;;;;;5025692;28;20037;-74
2022/05/17 05:39:12;;;;;;;16.83;12.23;;;14.90;99.90;;;;;;4987907;28;20607;-73
2022/05/17 05:41:38;;;;;;;17.88;11.13;;;15.00;99.90;;;;;;5010450;28;20056;-74
2022/05/17 05:44:04;;;;;;;18.95;11.13;;;15.10;99.90;;;;;;5034464;28;20099;-74
2022/05/17 05:46:42;;;;;;;19.35;11.43;;;15.20;99.90;;;;;;4982419;28;20087;-74
2022/05/17 05:49:09;;;;;;;18.02;9.93;;;15.30;99.90;;;;;;5020784;28;20132;-74
2022/05/17 05:51:36;;;;;;;15.27;9.35;;;15.40;99.90;;;;;;5024333;28;20511;-73
2022/05/17 05:54:03;;;;;;;17.02;10.07;;;15.40;99.90;;;;;;5021837;28;20128;-73
2022/05/17 05:56:29;;;;;;;19.00;9.10;;;15.50;99.90;;;;;;5027216;28;20486;-73
2022/05/17 05:58:55;;;;;;;17.23;9.40;;;15.60;99.90;;;;;;5009723;28;20063;-72
2022/05/17 06:01:20;;;;;;;19.33;10.45;;;15.60;99.90;;;;;;5039511;28;20170;-73
2022/05/17 06:03:46;;;;;;;13.00;8.68;;;15.70;99.90;;;;;;5039098;28;20131;-73
2022/05/17 06:06:12;;;;;;;14.30;9.02;;;15.70;99.90;;;;;;5024340;28;20055;-73
2022/05/17 06:08:38;;;;;;;19.95;9.98;;;15.70;99.90;;;;;;5017974;28;20068;-73
2022/05/17 06:11:04;;;;;;;16.63;9.95;;;15.70;99.90;;;;;;5011806;28;20107;-73
2022/05/17 06:13:31;;;;;;;17.30;9.45;;;15.70;99.90;;;;;;5029176;28;20047;-73
2022/05/17 06:15:57;;;;;;;14.20;9.68;;;15.80;99.90;;;;;;5012357;28;20056;-73
2022/05/17 06:18:23;;;;;;;16.20;9.52;;;15.80;99.90;;;;;;5012452;28;20056;-73
2022/05/17 06:20:51;;;;;;;15.35;9.45;;;15.90;99.90;;;;;;5010985;28;20103;-73
2022/05/17 06:23:18;;;;;;;16.40;8.90;;;15.80;99.90;;;;;;5012150;28;20085;-73
2022/05/17 06:25:44;;;;;;;20.08;9.80;;;15.90;99.90;;;;;;5025531;28;20049;-73
2022/05/17 06:28:10;;;;;;;17.23;9.32;;;16.00;99.90;;;;;;5028707;28;20052;-73
2022/05/17 06:30:37;;;;;;;14.95;8.85;;;16.00;99.90;;;;;;5027310;28;20080;-73
2022/05/17 06:33:02;;;;;;;13.45;8.88;;;16.10;99.90;;;;;;5009356;28;20045;-73
2022/05/17 06:35:28;;;;;;;14.00;7.43;;;16.20;99.90;;;;;;5020288;28;20381;-73
2022/05/17 06:37:54;;;;;;;16.05;7.85;;;16.30;99.90;;;;;;5026312;28;20539;-73
2022/05/17 06:40:20;;;;;;;14.82;7.93;;;16.40;99.90;;;;;;5008853;28;20498;-74
2022/05/17 06:42:46;;;;;;;17.25;7.50;;;16.50;99.90;;;;;;5023257;28;20045;-73
2022/05/17 06:45:12;;;;;;;13.77;7.30;;;16.60;99.90;;;;;;5022147;28;20316;-74
2022/05/17 06:47:40;;;;;;;17.88;7.38;;;16.70;99.90;;;;;;5007847;28;20124;-74
2022/05/17 06:50:06;;;;;;;15.20;6.90;;;16.80;99.90;;;;;;5025748;28;20499;-75
2022/05/17 06:52:32;;;;;;;17.65;7.10;;;16.90;99.90;;;;;;4995060;28;20045;-73
2022/05/17 06:54:58;;;;;;;16.58;6.85;;;17.00;99.90;;;;;;5011041;28;20399;-75
2022/05/17 06:57:24;;;;;;;14.63;6.30;;;17.10;99.90;;;;;;5010893;28;20423;-73
2022/05/17 06:59:50;;;;;;;11.57;5.72;;;17.20;99.90;;;;;;5010491;28;20073;-74
2022/05/17 07:02:16;;;;;;;15.20;5.63;;;17.20;99.90;;;;;;5009669;28;20399;-73
2022/05/17 07:04:45;;;;;;;11.70;5.22;;;17.30;99.90;;;;;;5018066;28;20037;-73
2022/05/17 07:07:11;;;;;;;15.43;5.40;;;17.40;99.90;;;;;;5019396;28;20053;-73
2022/05/17 07:09:37;;;;;;;12.02;4.90;;;17.40;99.90;;;;;;5041256;28;20133;-74
2022/05/17 07:14:49;;;;;;;12.50;4.85;;;17.50;99.90;;;;;;5026479;28;20088;-73
2022/05/17 07:17:20;;;;;;;11.32;4.82;;;17.60;99.90;;;;;;5010157;28;20041;-73
2022/05/17 07:19:47;;;;;;;14.18;5.13;;;17.70;99.90;;;;;;5008743;28;20059;-74
2022/05/17 07:22:16;;;;;;;11.65;4.63;;;17.70;99.90;;;;;;5007324;28;20034;-75
2022/05/17 07:24:45;;;;;;;13.27;5.10;;;17.80;99.90;;;;;;5008203;28;20503;-75
2022/05/17 07:27:12;;;;;;;13.48;4.50;;;17.90;99.90;;;;;;4989459;28;20041;-74
2022/05/17 07:29:37;;;;;;;13.32;4.70;;;18.00;99.90;;;;;;5026934;28;20098;-75
2022/05/17 07:32:04;;;;;;;13.75;4.63;;;18.20;99.90;;;;;;5026677;28;20582;-74
2022/05/17 07:34:29;;;;;;;14.32;4.60;;;18.30;99.90;;;;;;5026601;28;20049;-74
2022/05/17 07:36:55;;;;;;;11.40;4.30;;;18.40;99.90;;;;;;4993740;28;20045;-75
2022/05/17 07:39:21;;;;;;;11.48;4.40;;;18.40;99.90;;;;;;5010260;28;20505;-74
2022/05/17 07:41:50;;;;;;;14.32;4.57;;;18.60;99.90;;;;;;5010434;28;20049;-74
2022/05/17 07:44:16;;;;;;;12.65;4.63;;;18.70;99.90;;;;;;5010491;28;20045;-75
2022/05/17 07:46:41;;;;;;;10.80;4.18;;;18.80;99.90;;;;;;5027251;28;20045;-74
2022/05/17 07:49:07;;;;;;;14.20;4.72;;;19.00;99.90;;;;;;5010488;28;20049;-75
2022/05/17 07:51:33;;;;;;;11.90;4.70;;;19.10;99.90;;;;;;5010080;28;20136;-75
2022/05/17 07:54:01;;;;;;;10.90;3.85;;;19.30;99.90;;;;;;5026822;28;20037;-75
2022/05/17 07:56:27;;;;;;;9.82;3.78;;;19.40;99.90;;;;;;5009500;28;20580;-75
2022/05/17 07:58:53;;;;;;;13.65;3.85;;;19.50;99.90;;;;;;5023423;28;20084;-75
2022/05/17 08:01:19;;;;;;;11.48;3.63;;;19.70;99.90;;;;;;5023874;28;20037;-75
2022/05/17 08:03:44;;;;;;;12.57;3.67;;;19.80;99.90;;;;;;5026515;28;20041;-74
2022/05/17 08:06:10;;;;;;;9.85;3.28;;;19.90;99.90;;;;;;5011557;28;20132;-80
2022/05/17 08:08:36;;;;;;;8.77;3.53;;;20.00;99.90;;;;;;5023574;28;20045;-81
2022/05/17 08:11:02;;;;;;;10.00;3.38;;;20.10;99.90;;;;;;4992190;28;20108;-81
2022/05/17 08:13:28;;;;;;;11.88;4.15;;;20.20;99.90;;;;;;5023939;28;20049;-79
2022/05/17 08:15:54;;;;;;;10.60;3.75;;;20.30;99.90;;;;;;4990794;28;20128;-80
2022/05/17 08:18:20;;;;;;;10.38;4.03;;;20.40;99.90;;;;;;5008155;28;20069;-75
2022/05/17 08:20:46;;;;;;;11.93;3.47;;;20.50;99.90;;;;;;5021377;28;20037;-75
2022/05/17 08:23:16;;;;;;;8.90;2.95;;;20.60;99.90;;;;;;5035700;28;20057;-75
2022/05/17 08:28:29;;;;;;;12.25;3.10;;;20.80;99.90;;;;;;5019299;28;20856;-74
2022/05/17 08:30:54;;;;;;;9.38;3.38;;;20.90;99.90;;;;;;4990684;28;20045;-75
2022/05/17 08:33:23;;;;;;;13.10;3.40;;;21.00;99.90;;;;;;5024570;28;20107;-74
2022/05/17 08:35:53;;;;;;;10.43;3.33;;;21.10;99.90;;;;;;5025679;28;20060;-75
2022/05/17 08:38:22;;;;;;;8.52;2.88;;;21.30;99.90;;;;;;5025366;28;20037;-74
2022/05/17 08:41:09;;;;;;;8.45;2.92;;;21.30;99.90;;;;;;5008240;28;20046;-74
2022/05/17 08:43:44;;;;;;;9.38;2.78;;;21.40;99.90;;;;;;5023398;28;20149;-74
2022/05/17 08:46:15;;;;;;;7.93;2.55;;;21.40;99.90;;;;;;5025695;28;20090;-74
2022/05/17 08:48:57;;;;;;;7.63;2.70;;;21.50;99.90;;;;;;5026068;28;20443;-74
2022/05/17 08:51:45;;;;;;;7.32;2.22;;;21.60;99.90;;;;;;5007817;28;20449;-74
2022/05/17 08:54:16;;;;;;;9.15;2.15;;;21.80;99.90;;;;;;5023796;28;20041;-74
2022/05/17 08:56:47;;;;;;;7.72;1.90;;;21.90;99.90;;;;;;5007996;28;20076;-74
2022/05/17 08:59:18;;;;;;;8.75;2.00;;;22.00;99.90;;;;;;5008899;28;20496;-74
2022/05/17 09:02:00;;;;;;;9.65;2.00;;;22.10;99.90;;;;;;5021645;28;20037;-75
2022/05/17 09:04:35;;;;;;;11.73;2.30;;;22.20;99.90;;;;;;5008422;28;20109;-74
2022/05/17 09:07:28;;;;;;;6.60;1.85;;;22.40;99.90;;;;;;5024266;28;20080;-75
2022/05/17 09:10:14;;;;;;;6.68;2.28;;;22.40;99.90;;;;;;5024827;28;20403;-75
2022/05/17 09:12:45;;;;;;;7.80;2.15;;;22.50;99.90;;;;;;5025451;28;20068;-75
2022/05/17 09:15:13;;;;;;;7.40;1.52;;;22.60;99.90;;;;;;5025777;28;20085;-75
2022/05/17 09:17:39;;;;;;;7.60;1.80;;;22.70;99.90;;;;;;5005590;28;20475;-74
2022/05/17 09:20:08;;;;;;;6.93;2.17;;;22.80;99.90;;;;;;5005770;28;20056;-75
2022/05/17 09:22:34;;;;;;;8.43;1.60;;;22.90;99.90;;;;;;5009117;28;20219;-74
2022/05/17 09:25:16;;;;;;;8.55;1.70;;;23.00;99.90;;;;;;5010682;28;20175;-74
2022/05/17 09:27:53;;;;;;;5.75;2.10;;;23.10;99.90;;;;;;5025504;28;20066;-75
2022/05/17 09:30:21;;;;;;;7.20;1.42;;;23.20;99.90;;;;;;5024299;28;20077;-75
2022/05/17 09:32:48;;;;;;;6.63;1.30;;;23.30;99.90;;;;;;5023483;28;20554;-75
2022/05/17 09:35:22;;;;;;;6.85;1.48;;;23.30;99.20;;;;;;5026874;28;20053;-75
2022/05/17 09:37:53;;;;;;;7.50;1.73;;;23.40;97.70;;;;;;5011597;28;20046;-75
2022/05/17 09:40:37;;;;;;;8.93;1.83;;;23.40;95.30;;;;;;5015860;28;20042;-74
2022/05/17 09:43:07;;;;;;;11.65;1.80;;;23.50;96.80;;;;;;5028764;28;20053;-75
2022/05/17 09:45:49;;;;;;;8.63;1.73;;;23.60;95.30;;;;;;5011746;28;20049;-74
2022/05/17 09:54:32;;;;;;;4.95;1.80;;;23.60;92.60;;;;;;5027984;28;20111;-76
2022/05/17 09:57:12;;;;;;;6.53;1.60;;;23.70;92.30;;;;;;5010369;28;20205;-75
2022/05/17 09:59:38;;;;;;;4.60;1.10;;;23.80;91.30;;;;;;5026278;28;20045;-75
2022/05/17 10:02:04;;;;;;;5.47;1.38;;;23.90;92.40;;;;;;5007809;28;20115;-75
2022/05/17 10:04:30;;;;;;;5.53;1.45;;;24.10;92.00;;;;;;4991214;28;20411;-76
2022/05/17 10:06:57;;;;;;;5.70;1.10;;;24.20;86.50;;;;;;4998620;28;20052;-75
2022/05/17 10:09:29;;;;;;;5.45;1.20;;;24.10;86.60;;;;;;5022205;28;20132;-74
2022/05/17 10:12:07;;;;;;;7.13;1.67;;;24.10;85.40;;;;;;5015576;28;20070;-74
2022/05/17 10:14:44;;;;;;;7.30;1.40;;;24.20;83.40;;;;;;5003880;28;20054;-74
2022/05/17 10:17:21;;;;;;;5.47;1.73;;;24.10;83.00;;;;;;5017667;28;20090;-75
2022/05/17 10:20:11;;;;;;;7.20;1.65;;;24.10;89.30;;;;;;5006548;28;20115;-75
2022/05/17 10:22:46;;;;;;;;;;;24.20;90.60;;;;;;5020649;28;20161;-75
2022/05/17 10:25:39;;;;;;;8.55;1.90;;;24.10;90.10;;;;;;5031094;28;19924;-74
2022/05/17 10:28:38;;;;;;;5.78;1.40;;;24.00;85.10;;;;;;5023128;28;20134;-75
2022/05/17 10:31:35;;;;;;;6.28;1.65;;;23.80;84.10;;;;;;4980877;28;20087;-73
2022/05/17 10:34:20;;;;;;;4.15;1.10;;;23.70;85.20;;;;;;4987904;28;20054;-73
2022/05/17 10:36:51;;;;;;;6.72;1.35;;;23.50;86.90;;;;;;5033770;28;20650;-74
2022/05/17 10:39:40;;;;;;;7.47;1.63;;;23.40;89.10;;;;;;5019173;28;20068;-75
2022/05/17 10:42:06;;;;;;;6.25;1.20;;;23.40;90.00;;;;;;5033970;28;20067;-74
2022/05/17 10:44:54;;;;;;;7.10;1.30;;;23.60;88.70;;;;;;4988194;28;20049;-74
2022/05/17 10:47:33;;;;;;;4.53;1.38;;;23.80;85.20;;;;;;5022826;28;20090;-74
2022/05/17 10:50:19;;;;;;;4.20;1.40;;;23.90;86.90;;;;;;5023472;28;20045;-74
2022/05/17 10:53:11;;;;;;;6.40;1.25;;;24.00;80.80;;;;;;5014591;28;20044;-74
2022/05/17 10:55:37;;;;;;;5.18;1.33;;;24.00;77.20;;;;;;5022585;28;20050;-74
2022/05/17 10:58:10;;;;;;;8.38;1.23;;;24.00;76.50;;;;;;5012988;28;20114;-74
2022/05/17 11:00:55;;;;;;;7.40;1.38;;;24.20;79.40;;;;;;5024614;28;20042;-75
2022/05/17 11:03:40;;;;;;;8.10;1.50;;;24.40;75.90;;;;;;5017425;28;20045;-76
2022/05/17 11:06:21;;;;;;;4.78;1.30;;;24.40;70.50;;;;;;5023468;28;20065;-74
2022/05/17 11:09:05;;;;;;;5.35;1.30;;;24.50;73.20;;;;;;5024716;28;20085;-76
2022/05/17 11:11:52;;;;;;;5.55;1.25;;;24.70;73.80;;;;;;5021822;28;20068;-74
2022/05/17 11:14:47;;;;;;;8.02;1.70;;;24.90;72.50;;;;;;5024043;28;20511;-74
2022/05/17 11:17:51;;;;;;;4.07;1.20;;;25.10;72.90;;;;;;5024171;28;20072;-74
2022/05/17 11:20:37;;;;;;;6.22;1.23;;;25.20;65.40;;;;;;5009338;28;20050;-76
2022/05/17 11:23:08;;;;;;;5.35;1.05;;;25.20;64.10;;;;;;5026788;28;20107;-75
2022/05/17 11:26:07;;;;;;;4.95;1.30;;;25.30;63.00;;;;;;5008913;28;20365;-74
2022/05/17 11:28:51;;;;;;;6.07;1.45;;;25.30;61.40;;;;;;5007096;28;20131;-74
2022/05/17 11:31:18;;;;;;;5.05;1.23;;;25.30;58.90;;;;;;5005759;28;20085;-74
2022/05/17 11:33:44;;;;;;;6.38;1.30;;;25.20;59.00;;;;;;5014931;28;20111;-75
2022/05/17 11:36:32;;;;;;;5.60;1.70;;;25.20;61.90;;;;;;5025476;28;20484;-75
2022/05/17 11:38:58;;;;;;;12.05;2.28;;;25.30;66.70;;;;;;5024818;28;20092;-75
2022/05/17 11:41:43;;;;;;;8.70;1.70;;;25.50;65.90;;;;;;5024271;28;20046;-75
2022/05/17 11:44:23;;;;;;;8.93;2.17;;;25.60;68.20;;;;;;5021194;28;20057;-75
2022/05/17 11:46:51;;;;;;;8.60;2.08;;;25.60;66.30;;;;;;5007844;28;20053;-76
2022/05/17 11:49:17;;;;;;;8.13;1.80;;;25.40;65.70;;;;;;5005631;28;20099;-75
2022/05/17 11:51:58;;;;;;;8.05;1.67;;;25.30;68.70;;;;;;5017472;28;20570;-76
2022/05/17 11:54:45;;;;;;;10.25;2.20;;;25.30;68.90;;;;;;5010320;28;20156;-75
2022/05/17 11:57:32;;;;;;;8.13;2.00;;;25.40;72.10;;;;;;5027876;28;20045;-76
2022/05/17 12:00:29;;;;;;;8.90;2.25;;;25.50;70.70;;;;;;5027891;28;20594;-75
2022/05/17 12:02:58;;;;;;;6.32;1.65;;;25.50;76.20;;;;;;5033110;28;20092;-74
2022/05/17 12:05:46;;;;;;;13.43;1.95;;;25.50;73.30;;;;;;5015240;28;20041;-75
2022/05/17 12:08:27;;;;;;;9.50;1.80;;;25.30;75.50;;;;;;5020971;28;20049;-76
2022/05/17 12:11:14;;;;;;;9.32;2.03;;;25.20;77.00;;;;;;5030005;28;20046;-74
2022/05/17 12:14:20;;;;;;;12.35;2.17;;;25.30;78.00;;;;;;5025624;28;20088;-75
2022/05/17 12:17:01;;;;;;;12.70;2.97;;;25.50;77.00;;;;;;5003549;28;20045;-77
2022/05/17 12:19:46;;;;;;;8.82;2.00;;;25.60;71.70;;;;;;5022734;28;20594;-78
2022/05/17 12:22:21;;;;;;;13.68;2.38;;;25.60;77.20;;;;;;5027919;28;20333;-75
2022/05/17 12:24:52;;;;;;;8.27;1.88;;;25.70;76.60;;;;;;5016934;28;20050;-76
2022/05/17 12:27:31;;;;;;;6.60;1.85;;;25.80;73.30;;;;;;5038324;28;20395;-76
2022/05/17 12:33:18;;;;;;;11.52;2.13;;;26.10;78.90;;;;;;5023115;28;20049;-75
2022/05/17 12:35:48;;;;;;;6.00;1.77;;;26.20;73.80;;;;;;5032342;28;20932;-76
2022/05/17 12:45:04;;;;;;;8.15;1.83;;;25.80;70.90;;;;;;5017137;28;20045;-75
2022/05/17 12:47:37;;;;;;;12.20;3.13;;;25.70;72.30;;;;;;4959891;28;20057;-74
2022/05/17 12:50:04;;;;;;;8.18;3.22;;;25.60;76.50;;;;;;5015685;28;20103;-76
2022/05/17 12:52:36;;;;;;;8.35;2.20;;;25.70;77.40;;;;;;4991683;28;20041;-76
2022/05/17 12:55:04;;;;;;;8.27;2.30;;;25.70;79.90;;;;;;5024906;28;20046;-75
2022/05/17 12:57:38;;;;;;;11.55;2.47;;;25.80;77.40;;;;;;5024068;28;21392;-76
2022/05/17 13:00:17;;;;;;;7.82;2.38;;;25.80;78.70;;;;;;5025023;28;20053;-75
2022/05/17 13:02:48;;;;;;;9.05;2.60;;;25.90;79.70;;;;;;5009103;28;20052;-75
2022/05/17 13:05:29;;;;;;;9.85;2.97;;;26.10;83.30;;;;;;5008083;28;20052;-73
2022/05/17 13:08:09;;;;;;;9.65;2.70;;;26.40;74.00;;;;;;5005065;28;20500;-75
2022/05/17 13:10:37;;;;;;;8.18;2.45;;;26.40;73.60;;;;;;5033492;28;20088;-75
2022/05/17 13:13:16;;;;;;;8.82;2.05;;;26.30;69.80;;;;;;5001182;28;20450;-75